createdAt,value
2017-11-07T00:01:05.501Z,79.25
2017-11-07T00:03:33.112Z,79.02
2017-11-07T00:06:00.706Z,78.83
2017-11-07T00:08:28.267Z,78.50
2017-11-07T00:10:55.684Z,78.36
2017-11-07T00:13:23.074Z,78.27
2017-11-07T00:15:50.637Z,78.19
2017-11-07T00:18:18.118Z,78.18
2017-11-07T00:23:12.456Z,78.45
2017-11-07T00:25:40.077Z,79.16
2017-11-07T00:28:07.575Z,79.27
2017-11-07T00:30:35.003Z,79.30
2017-11-07T00:33:02.513Z,79.88
2017-11-07T00:35:30.039Z,80.01
2017-11-07T00:37:57.625Z,79.83
2017-11-07T00:40:25.254Z,79.60
2017-11-07T00:42:52.848Z,80.19
2017-11-07T00:45:20.267Z,80.96
2017-11-07T00:47:47.694Z,80.11
2017-11-07T00:50:15.090Z,79.44
2017-11-07T00:52:42.542Z,78.96
2017-11-07T00:55:09.990Z,78.45
2017-11-07T00:57:37.393Z,78.45
2017-11-07T01:00:04.811Z,79.07
2017-11-07T01:02:32.208Z,79.05
2017-11-07T01:04:59.632Z,78.79
2017-11-07T01:07:27.033Z,78.62
2017-11-07T01:09:54.426Z,78.69
2017-11-07T01:12:21.832Z,78.85
2017-11-07T01:14:49.243Z,79.15
2017-11-07T01:17:16.807Z,80.49
2017-11-07T01:19:44.252Z,80.46
2017-11-07T01:22:11.654Z,80.32
2017-11-07T01:24:39.058Z,79.96
2017-11-07T01:27:06.522Z,79.93
2017-11-07T01:29:33.913Z,79.34
2017-11-07T01:32:01.318Z,79.36
2017-11-07T01:34:28.722Z,80.15
2017-11-07T01:36:56.124Z,79.97
2017-11-07T01:39:23.514Z,79.69
2017-11-07T01:41:50.927Z,80.83
2017-11-07T01:44:18.327Z,81.18
2017-11-07T01:46:45.754Z,81.04
2017-11-07T01:49:13.220Z,80.35
2017-11-07T01:51:40.632Z,80.05
2017-11-07T01:54:08.128Z,80.25
2017-11-07T01:56:35.582Z,79.81
2017-11-07T01:59:02.985Z,79.79
2017-11-07T02:01:30.381Z,79.49
2017-11-07T02:03:57.815Z,79.66
2017-11-07T02:06:25.194Z,79.47
2017-11-07T02:08:52.613Z,79.33
2017-11-07T02:11:20.015Z,79.24
2017-11-07T02:13:47.471Z,80.06
2017-11-07T02:16:14.871Z,79.58
2017-11-07T02:18:42.273Z,79.46
2017-11-07T02:21:09.659Z,79.31
2017-11-07T02:23:37.092Z,79.53
2017-11-07T02:26:04.486Z,79.52
2017-11-07T02:28:31.893Z,79.86
2017-11-07T02:30:59.367Z,80.04
2017-11-07T02:33:26.766Z,80.89
2017-11-07T02:35:54.154Z,81.47
2017-11-07T02:38:21.559Z,81.35
2017-11-07T02:40:48.962Z,81.61
2017-11-07T02:43:16.355Z,81.11
2017-11-07T02:45:43.758Z,81.20
2017-11-07T02:48:11.248Z,81.54
2017-11-07T02:50:38.707Z,82.02
2017-11-07T02:53:06.103Z,82.24
2017-11-07T02:55:33.528Z,81.94
2017-11-07T02:58:00.904Z,82.36
2017-11-07T03:00:28.308Z,82.72
2017-11-07T03:02:55.711Z,82.92
2017-11-07T03:05:23.139Z,83.25
2017-11-07T03:07:50.604Z,83.81
2017-11-07T03:10:18.000Z,83.94
2017-11-07T03:12:45.498Z,83.57
2017-11-07T03:15:12.902Z,84.19
2017-11-07T03:17:40.291Z,84.27
2017-11-07T03:20:07.698Z,84.34
2017-11-07T03:22:35.122Z,84.19
2017-11-07T03:25:02.582Z,84.26
2017-11-07T03:27:29.980Z,83.72
2017-11-07T03:29:57.405Z,83.68
2017-11-07T03:32:24.862Z,83.96
2017-11-07T03:34:52.303Z,83.63
2017-11-07T03:37:19.698Z,83.28
2017-11-07T03:39:47.102Z,83.17
2017-11-07T03:42:14.497Z,83.17
2017-11-07T03:44:41.902Z,83.38
2017-11-07T03:47:09.295Z,84.20
2017-11-07T03:49:36.702Z,84.38
2017-11-07T03:52:04.090Z,84.74
2017-11-07T03:54:31.539Z,84.62
2017-11-07T03:56:58.944Z,84.58
2017-11-07T03:59:26.347Z,85.02
2017-11-07T04:01:53.753Z,84.56
2017-11-07T04:04:21.151Z,84.94
2017-11-07T04:06:48.547Z,84.71
2017-11-07T04:09:15.971Z,84.36
2017-11-07T04:11:43.426Z,84.57
2017-11-07T04:14:10.909Z,85.32
2017-11-07T04:16:38.312Z,86.10
2017-11-07T04:19:05.763Z,86.57
2017-11-07T04:21:33.164Z,86.59
2017-11-07T04:24:00.559Z,86.84
2017-11-07T04:26:27.955Z,86.68
2017-11-07T04:28:55.343Z,86.39
2017-11-07T04:31:22.767Z,86.02
2017-11-07T04:33:50.158Z,85.50
2017-11-07T04:36:17.558Z,85.27
2017-11-07T04:38:45.041Z,85.19
2017-11-07T04:41:12.443Z,85.86
2017-11-07T04:43:39.830Z,85.83
2017-11-07T04:46:07.268Z,86.44
2017-11-07T04:48:34.658Z,87.01
2017-11-07T04:51:02.065Z,86.37
2017-11-07T04:53:29.455Z,86.64
2017-11-07T04:55:56.857Z,86.57
2017-11-07T04:58:24.246Z,86.42
2017-11-07T05:00:51.654Z,85.89
2017-11-07T05:03:19.090Z,85.61
2017-11-07T05:05:46.492Z,85.85
2017-11-07T05:08:13.891Z,86.67
2017-11-07T05:10:41.344Z,86.93
2017-11-07T05:13:08.738Z,87.31
2017-11-07T05:15:36.177Z,87.63
2017-11-07T05:18:03.566Z,87.48
2017-11-07T05:20:30.967Z,87.60
2017-11-07T05:22:58.374Z,87.80
2017-11-07T05:25:25.754Z,88.02
2017-11-07T05:27:53.234Z,88.42
2017-11-07T05:30:20.683Z,88.85
2017-11-07T05:32:48.090Z,88.84
2017-11-07T05:35:15.499Z,88.45
2017-11-07T05:37:42.902Z,88.42
2017-11-07T05:40:10.319Z,88.89
2017-11-07T05:42:37.771Z,88.77
2017-11-07T05:45:05.166Z,88.72
2017-11-07T05:47:32.594Z,88.33
2017-11-07T05:50:00.048Z,88.00
2017-11-07T05:52:27.497Z,88.02
2017-11-07T05:54:54.894Z,88.58
2017-11-07T05:57:23.107Z,88.75
2017-11-07T05:59:50.491Z,88.33
2017-11-07T06:02:17.890Z,87.87
2017-11-07T06:04:45.278Z,87.15
2017-11-07T06:07:12.675Z,87.17
2017-11-07T06:09:40.076Z,87.03
2017-11-07T06:12:07.474Z,86.08
2017-11-07T06:14:34.867Z,85.24
2017-11-07T06:17:02.271Z,84.65
2017-11-07T06:19:29.730Z,84.35
2017-11-07T06:21:57.174Z,84.38
2017-11-07T06:24:24.575Z,84.70
2017-11-07T06:26:51.979Z,85.33
2017-11-07T06:29:19.373Z,85.54
2017-11-07T06:31:46.771Z,85.01
2017-11-07T06:34:14.169Z,85.49
2017-11-07T06:36:41.614Z,86.10
2017-11-07T06:39:09.007Z,86.09
2017-11-07T06:41:36.402Z,86.90
2017-11-07T06:44:03.799Z,87.65
2017-11-07T06:46:31.190Z,88.57
2017-11-07T06:48:58.590Z,88.91
2017-11-07T06:51:25.982Z,88.91
2017-11-07T06:53:53.399Z,89.34
2017-11-07T06:56:20.791Z,89.18
2017-11-07T06:58:48.194Z,88.85
2017-11-07T07:01:15.646Z,89.48
2017-11-07T07:03:43.051Z,89.78
2017-11-07T07:06:10.486Z,90.23
2017-11-07T07:08:37.859Z,90.42
2017-11-07T07:11:05.292Z,90.12
2017-11-07T07:13:32.680Z,89.46
2017-11-07T07:16:00.074Z,89.45
2017-11-07T07:18:27.463Z,89.30
2017-11-07T07:20:54.868Z,89.78
2017-11-07T07:23:22.358Z,90.13
2017-11-07T07:25:49.750Z,89.75
2017-11-07T07:28:17.167Z,89.24
2017-11-07T07:30:44.625Z,89.12
2017-11-07T07:33:12.090Z,89.07
2017-11-07T07:35:39.487Z,89.28
2017-11-07T07:38:06.888Z,89.29
2017-11-07T07:40:34.396Z,88.72
2017-11-07T07:43:01.854Z,88.39
2017-11-07T07:45:29.307Z,88.48
2017-11-07T07:47:56.701Z,87.98
2017-11-07T07:50:24.098Z,86.97
2017-11-07T07:52:51.492Z,86.97
2017-11-07T07:55:18.886Z,87.09
2017-11-07T07:57:46.288Z,87.69
2017-11-07T08:00:13.682Z,87.38
2017-11-07T08:02:41.084Z,87.91
2017-11-07T08:05:08.483Z,87.51
2017-11-07T08:07:35.870Z,87.75
2017-11-07T08:10:03.277Z,87.71
2017-11-07T08:12:30.671Z,87.68
2017-11-07T08:14:58.067Z,87.39
2017-11-07T08:17:25.454Z,87.34
2017-11-07T08:19:52.862Z,87.17
2017-11-07T08:22:20.339Z,87.17
2017-11-07T08:24:47.803Z,87.59
2017-11-07T08:27:15.191Z,87.58
2017-11-07T08:29:42.615Z,87.68
2017-11-07T08:32:10.058Z,88.49
2017-11-07T08:34:37.460Z,88.39
2017-11-07T08:37:04.850Z,89.02
2017-11-07T08:39:32.269Z,89.11
2017-11-07T08:41:59.662Z,88.99
2017-11-07T08:44:27.137Z,88.87
2017-11-07T08:46:54.594Z,88.43
2017-11-07T08:49:21.982Z,88.12
2017-11-07T08:51:49.373Z,87.37
2017-11-07T08:54:16.759Z,87.42
2017-11-07T08:56:44.147Z,87.78
2017-11-07T08:59:11.548Z,87.98
2017-11-07T09:01:38.927Z,88.45
2017-11-07T09:04:06.374Z,88.31
2017-11-07T09:06:33.841Z,88.53
2017-11-07T09:09:01.218Z,88.76
2017-11-07T09:11:28.646Z,89.41
2017-11-07T09:13:56.105Z,89.46
2017-11-07T09:16:23.495Z,89.56
2017-11-07T09:18:50.877Z,88.98
2017-11-07T09:21:18.271Z,89.47
2017-11-07T09:23:45.726Z,89.22
2017-11-07T09:26:13.134Z,89.41
2017-11-07T09:28:40.523Z,89.38
2017-11-07T09:31:07.907Z,89.62
2017-11-07T09:33:35.354Z,89.30
2017-11-07T09:36:02.743Z,89.25
2017-11-07T09:38:30.134Z,88.88
2017-11-07T09:40:57.515Z,88.66
2017-11-07T09:43:24.978Z,88.41
2017-11-07T09:45:52.366Z,88.31
2017-11-07T09:48:19.793Z,88.58
2017-11-07T09:50:47.176Z,88.77
2017-11-07T09:53:14.570Z,88.43
2017-11-07T09:55:42.051Z,89.07
2017-11-07T09:58:09.446Z,89.09
2017-11-07T10:00:36.889Z,88.60
2017-11-07T10:03:04.278Z,88.70
2017-11-07T10:05:31.679Z,88.38
2017-11-07T10:07:59.067Z,89.27
2017-11-07T10:10:26.487Z,89.33
2017-11-07T10:12:53.879Z,89.29
2017-11-07T10:15:21.257Z,89.58
2017-11-07T10:17:48.650Z,89.30
2017-11-07T10:20:16.035Z,89.11
2017-11-07T10:22:43.428Z,89.23
2017-11-07T10:25:10.810Z,88.87
2017-11-07T10:27:38.213Z,88.82
2017-11-07T10:30:05.598Z,88.93
2017-11-07T10:32:33.002Z,88.97
2017-11-07T10:35:00.432Z,87.89
2017-11-07T10:37:27.886Z,87.09
2017-11-07T10:39:55.287Z,86.97
2017-11-07T10:42:22.707Z,87.20
2017-11-07T10:44:50.102Z,86.86
2017-11-07T10:47:17.582Z,86.79
2017-11-07T10:49:44.971Z,87.17
2017-11-07T10:52:12.359Z,88.13
2017-11-07T10:54:39.756Z,89.08
2017-11-07T10:57:07.140Z,88.53
2017-11-07T10:59:34.524Z,87.94
2017-11-07T11:02:01.913Z,88.07
2017-11-07T11:04:29.312Z,87.93
2017-11-07T11:06:56.724Z,87.61
2017-11-07T11:09:24.099Z,87.12
2017-11-07T11:11:51.482Z,87.05
2017-11-07T11:14:18.978Z,87.49
2017-11-07T11:16:46.374Z,86.41
2017-11-07T11:19:13.794Z,86.23
2017-11-07T11:21:41.176Z,86.16
2017-11-07T11:24:08.568Z,86.31
2017-11-07T11:26:36.059Z,86.30
2017-11-07T11:29:03.457Z,87.05
2017-11-07T11:31:30.842Z,87.73
2017-11-07T11:33:58.226Z,88.16
2017-11-07T11:36:25.619Z,88.07
2017-11-07T11:38:53.019Z,88.36
2017-11-07T11:41:20.471Z,89.09
2017-11-07T11:43:47.954Z,89.23
2017-11-07T11:46:15.402Z,88.64
2017-11-07T11:48:42.799Z,88.08
2017-11-07T11:51:10.210Z,87.46
2017-11-07T11:53:37.675Z,87.83
2017-11-07T11:56:05.072Z,88.16
2017-11-07T11:58:32.454Z,87.94
2017-11-07T12:00:59.947Z,87.42
2017-11-07T12:03:27.344Z,87.03
2017-11-07T12:05:54.751Z,86.54
2017-11-07T12:08:22.135Z,85.82
2017-11-07T12:10:49.532Z,85.62
2017-11-07T12:13:16.915Z,85.36
2017-11-07T12:15:44.315Z,85.40
2017-11-07T12:18:11.699Z,85.88
2017-11-07T12:20:39.095Z,85.79
2017-11-07T12:23:06.487Z,86.43
2017-11-07T12:25:33.877Z,87.13
2017-11-07T12:28:01.270Z,87.19
2017-11-07T12:30:28.666Z,86.72
2017-11-07T12:32:56.130Z,86.54
2017-11-07T12:35:23.524Z,86.62
2017-11-07T12:37:50.911Z,86.92
2017-11-07T12:40:18.328Z,87.19
2017-11-07T12:42:45.728Z,86.66
2017-11-07T12:45:13.115Z,86.28
2017-11-07T12:47:40.511Z,87.11
2017-11-07T12:50:19.923Z,87.35
2017-11-07T12:52:47.379Z,87.35
2017-11-07T12:55:14.766Z,86.91
2017-11-07T12:57:42.155Z,86.88
2017-11-07T13:00:09.555Z,86.84
2017-11-07T13:02:36.949Z,86.72
2017-11-07T13:05:04.350Z,86.06
2017-11-07T13:07:31.821Z,85.75
2017-11-07T13:09:59.211Z,85.07
2017-11-07T13:12:26.652Z,85.36
2017-11-07T13:14:54.025Z,85.41
2017-11-07T13:17:21.422Z,85.18
2017-11-07T13:19:48.812Z,86.02
2017-11-07T13:22:16.291Z,86.27
2017-11-07T13:24:43.679Z,85.70
2017-11-07T13:27:11.072Z,85.78
2017-11-07T13:29:38.464Z,85.58
2017-11-07T13:32:05.873Z,85.83
2017-11-07T13:34:33.262Z,85.99
2017-11-07T13:37:00.660Z,86.22
2017-11-07T13:39:28.099Z,85.81
2017-11-07T13:41:55.498Z,86.45
2017-11-07T13:44:22.911Z,86.10
2017-11-07T13:46:50.311Z,86.03
2017-11-07T13:49:17.718Z,86.01
2017-11-07T13:51:45.116Z,86.40
2017-11-07T13:54:12.502Z,86.06
2017-11-07T13:56:39.892Z,86.16
2017-11-07T13:59:07.283Z,86.30
2017-11-07T14:01:34.676Z,85.76
2017-11-07T14:04:02.064Z,85.10
2017-11-07T14:06:29.446Z,84.81
2017-11-07T14:08:56.838Z,85.33
2017-11-07T14:11:24.306Z,85.67
2017-11-07T14:13:51.703Z,85.59
2017-11-07T14:16:19.118Z,85.85
2017-11-07T14:18:46.524Z,86.48
2017-11-07T14:21:13.910Z,86.67
2017-11-07T14:23:41.308Z,86.47
2017-11-07T14:26:08.695Z,86.28
2017-11-07T14:28:36.194Z,86.60
2017-11-07T14:31:03.597Z,86.66
2017-11-07T14:33:30.990Z,86.49
2017-11-07T14:35:58.484Z,86.70
2017-11-07T14:38:25.966Z,87.01
2017-11-07T14:40:53.406Z,86.72
2017-11-07T14:43:20.810Z,86.35
2017-11-07T14:45:48.221Z,85.59
2017-11-07T14:48:15.594Z,84.93
2017-11-07T14:50:43.063Z,85.03
2017-11-07T14:53:10.455Z,85.55
2017-11-07T14:55:37.855Z,85.24
2017-11-07T14:58:05.255Z,84.83
2017-11-07T15:00:32.650Z,84.50
2017-11-07T15:03:00.047Z,84.22
2017-11-07T15:05:27.455Z,83.98
2017-11-07T15:07:55.077Z,83.83
2017-11-07T15:10:22.554Z,83.59
2017-11-07T15:12:49.935Z,84.51
2017-11-07T15:15:17.384Z,84.69
2017-11-07T15:17:44.798Z,84.05
2017-11-07T15:20:12.190Z,83.89
2017-11-07T15:22:39.661Z,84.00
2017-11-07T15:25:07.078Z,84.02
2017-11-07T15:27:34.474Z,84.88
2017-11-07T15:30:01.880Z,85.69
2017-11-07T15:32:29.275Z,85.61
2017-11-07T15:34:56.731Z,86.18
2017-11-07T15:37:24.193Z,85.58
2017-11-07T15:39:51.607Z,85.30
2017-11-07T15:42:19.028Z,85.31
2017-11-07T15:44:46.448Z,85.53
2017-11-07T15:47:13.879Z,85.54
2017-11-07T15:49:41.287Z,85.77
2017-11-07T15:52:08.687Z,85.92
2017-11-07T15:54:36.149Z,86.21
2017-11-07T15:57:03.543Z,86.60
2017-11-07T15:59:31.033Z,86.72
2017-11-07T16:01:58.455Z,87.28
2017-11-07T16:04:25.838Z,87.23
2017-11-07T16:06:53.224Z,86.86
2017-11-07T16:09:20.627Z,86.69
2017-11-07T16:11:48.027Z,86.95
2017-11-07T16:14:15.422Z,86.80
2017-11-07T16:16:42.878Z,86.77
2017-11-07T16:19:10.332Z,86.83
2017-11-07T16:21:37.747Z,86.79
2017-11-07T16:24:05.260Z,86.68
2017-11-07T16:26:32.709Z,86.72
2017-11-07T16:29:00.148Z,87.04
2017-11-07T16:31:27.547Z,87.29
2017-11-07T16:33:54.934Z,87.93
2017-11-07T16:36:22.428Z,88.33
2017-11-07T16:38:49.842Z,88.37
2017-11-07T16:41:17.238Z,88.03
2017-11-07T16:43:44.628Z,88.54
2017-11-07T16:46:12.040Z,88.19
2017-11-07T16:48:39.498Z,87.60
2017-11-07T16:51:06.899Z,87.74
2017-11-07T16:53:34.319Z,87.62
2017-11-07T16:56:01.758Z,87.26
2017-11-07T16:58:29.156Z,86.82
2017-11-07T17:00:56.579Z,86.96
2017-11-07T17:03:24.030Z,87.33
2017-11-07T17:05:51.427Z,87.25
2017-11-07T17:08:18.816Z,87.40
2017-11-07T17:10:46.298Z,87.33
2017-11-07T17:13:13.681Z,87.24
2017-11-07T17:15:41.075Z,86.82
2017-11-07T17:18:08.468Z,86.92
2017-11-07T17:20:35.862Z,86.76
2017-11-07T17:23:03.256Z,86.31
2017-11-07T17:25:30.656Z,86.92
2017-11-07T17:27:58.049Z,86.93
2017-11-07T17:30:25.560Z,86.54
2017-11-07T17:32:53.007Z,86.47
2017-11-07T17:35:20.390Z,86.27
2017-11-07T17:37:47.799Z,85.94
2017-11-07T17:40:15.269Z,85.89
2017-11-07T17:42:42.682Z,86.26
2017-11-07T17:45:10.062Z,86.21
2017-11-07T17:47:37.459Z,86.61
2017-11-07T17:50:04.851Z,86.22
2017-11-07T17:52:32.249Z,85.44
2017-11-07T17:54:59.639Z,86.28
2017-11-07T17:57:27.055Z,86.42
2017-11-07T17:59:54.512Z,85.68
2017-11-07T18:02:21.931Z,85.53
2017-11-07T18:04:49.355Z,86.23
2017-11-07T18:07:16.758Z,86.09
2017-11-07T18:09:44.235Z,86.11
2017-11-07T18:12:11.622Z,85.73
2017-11-07T18:14:39.040Z,85.45
2017-11-07T18:17:06.422Z,85.02
2017-11-07T18:19:33.821Z,84.91
2017-11-07T18:22:01.313Z,84.94
2017-11-07T18:24:28.766Z,85.08
2017-11-07T18:26:56.163Z,84.95
2017-11-07T18:29:23.578Z,85.28
2017-11-07T18:31:51.039Z,85.86
2017-11-07T18:34:18.419Z,86.02
2017-11-07T18:36:45.830Z,86.08
2017-11-07T18:39:13.299Z,85.57
2017-11-07T18:41:40.691Z,85.51
2017-11-07T18:44:08.082Z,85.01
2017-11-07T18:46:35.582Z,84.96
2017-11-07T18:49:02.963Z,84.79
2017-11-07T18:51:30.383Z,84.53
2017-11-07T18:53:57.765Z,85.40
2017-11-07T18:56:25.184Z,85.96
2017-11-07T18:58:52.574Z,85.42
2017-11-07T19:01:20.106Z,84.94
2017-11-07T19:03:47.496Z,85.27
2017-11-07T19:06:14.908Z,85.75
2017-11-07T19:08:42.301Z,85.38
2017-11-07T19:11:09.693Z,85.25
2017-11-07T19:13:37.088Z,85.22
2017-11-07T19:16:04.535Z,85.33
2017-11-07T19:18:31.932Z,85.27
2017-11-07T19:20:59.341Z,85.46
2017-11-07T19:23:26.738Z,85.18
2017-11-07T19:25:54.121Z,85.04
2017-11-07T19:28:21.527Z,85.26
2017-11-07T19:30:48.922Z,85.26
2017-11-07T19:33:16.436Z,85.47
2017-11-07T19:35:43.826Z,85.27
2017-11-07T19:38:11.235Z,85.70
2017-11-07T19:40:38.635Z,85.60
2017-11-07T19:43:06.074Z,85.53
2017-11-07T19:45:33.494Z,85.00
2017-11-07T19:48:00.883Z,84.84
2017-11-07T19:50:28.310Z,84.60
2017-11-07T19:52:55.786Z,85.00
2017-11-07T19:55:23.233Z,85.33
2017-11-07T19:57:50.610Z,85.34
2017-11-07T20:00:18.010Z,85.22
2017-11-07T20:02:45.486Z,85.50
2017-11-07T20:05:12.879Z,85.30
2017-11-07T20:07:40.302Z,85.64
2017-11-07T20:10:07.721Z,86.06
2017-11-07T20:12:35.114Z,86.12
2017-11-07T20:15:02.504Z,84.98
2017-11-07T20:17:29.892Z,84.34
2017-11-07T20:19:57.374Z,84.75
2017-11-07T20:22:24.773Z,84.89
2017-11-07T20:24:52.178Z,84.49
2017-11-07T20:27:19.643Z,84.70
2017-11-07T20:29:47.027Z,84.22
2017-11-07T20:32:14.445Z,83.95
2017-11-07T20:34:41.828Z,83.85
2017-11-07T20:37:09.280Z,83.75
2017-11-07T20:39:36.662Z,83.76
2017-11-07T20:42:04.068Z,84.17
2017-11-07T20:44:31.458Z,84.50
2017-11-07T20:46:58.863Z,85.30
2017-11-07T20:51:56.474Z,85.60
2017-11-07T20:54:23.868Z,85.53
2017-11-07T20:56:51.370Z,85.25
2017-11-07T20:59:18.758Z,84.89
2017-11-07T21:01:46.163Z,84.86
2017-11-07T21:04:13.554Z,84.74
2017-11-07T21:06:40.982Z,84.68
2017-11-07T21:09:08.443Z,84.73
2017-11-07T21:11:35.835Z,85.08
2017-11-07T21:14:03.236Z,84.93
2017-11-07T21:16:30.623Z,85.49
2017-11-07T21:18:58.023Z,85.59
2017-11-07T21:21:26.217Z,85.71
2017-11-07T21:23:53.706Z,85.97
2017-11-07T21:26:21.103Z,85.90
2017-11-07T21:28:48.495Z,85.33
2017-11-07T21:31:15.887Z,85.37
2017-11-07T21:33:43.279Z,85.34
2017-11-07T21:36:10.683Z,85.84
2017-11-07T21:38:38.084Z,85.62
2017-11-07T21:41:05.500Z,85.79
2017-11-07T21:43:32.906Z,85.64
2017-11-07T21:46:00.298Z,86.24
2017-11-07T21:48:27.962Z,86.23
2017-11-07T21:50:55.375Z,85.74
2017-11-07T21:53:22.767Z,85.48
2017-11-07T21:55:50.167Z,85.82
2017-11-07T21:58:17.563Z,85.96
2017-11-07T22:00:44.970Z,86.37
2017-11-07T22:03:12.386Z,86.69
2017-11-07T22:05:39.850Z,86.84
2017-11-07T22:08:07.243Z,86.76
2017-11-07T22:10:34.670Z,86.32
2017-11-07T22:13:02.055Z,86.57
2017-11-07T22:15:29.579Z,86.99
2017-11-07T22:20:53.934Z,87.21
2017-11-07T22:23:26.359Z,87.31
2017-11-07T22:25:53.814Z,87.28
2017-11-07T22:28:21.215Z,87.41
2017-11-07T22:30:48.607Z,87.58
2017-11-07T22:33:15.995Z,87.26
2017-11-07T22:35:43.414Z,86.39
2017-11-07T22:38:10.816Z,86.36
2017-11-07T22:40:38.207Z,86.90
2017-11-07T22:43:05.617Z,87.00
2017-11-07T22:45:33.010Z,86.62
2017-11-07T22:48:00.426Z,86.46
2017-11-07T22:50:27.822Z,86.37
2017-11-07T22:52:55.218Z,86.41
2017-11-07T22:55:22.607Z,85.85
2017-11-07T22:57:50.008Z,86.15
2017-11-07T23:00:17.495Z,86.09
2017-11-07T23:02:44.942Z,86.45
2017-11-07T23:05:12.343Z,86.47
2017-11-07T23:07:39.745Z,86.78
2017-11-07T23:10:07.180Z,86.81
2017-11-07T23:12:34.561Z,86.54
2017-11-07T23:15:01.976Z,86.24
2017-11-07T23:17:29.359Z,86.36
2017-11-07T23:19:56.829Z,86.20
2017-11-07T23:22:24.216Z,86.19
2017-11-07T23:24:51.628Z,85.47
2017-11-07T23:27:19.009Z,84.73
2017-11-07T23:29:46.418Z,85.22
2017-11-07T23:32:13.817Z,85.86
2017-11-07T23:34:41.197Z,86.24
2017-11-07T23:37:08.619Z,86.41
2017-11-07T23:39:36.065Z,86.40
2017-11-07T23:42:03.459Z,86.20
2017-11-07T23:44:30.854Z,85.81
2017-11-07T23:46:58.356Z,85.53
2017-11-07T23:49:25.757Z,85.27
2017-11-07T23:51:53.151Z,85.10
2017-11-07T23:54:20.580Z,85.18
2017-11-07T23:56:48.013Z,85.05
2017-11-07T23:59:21.946Z,84.64
